createdAt,value
2023-01-22T00:05:01.970Z,96616.94
2023-01-22T00:15:04.666Z,96601.66
2023-01-22T00:25:11.357Z,96596.06
2023-01-22T00:35:13.835Z,96582.91
2023-01-22T00:45:17.765Z,96579.19
2023-01-22T00:55:20.274Z,96567.38
2023-01-22T01:05:24.068Z,96568.97
2023-01-22T01:15:26.574Z,96571.78
2023-01-22T01:25:30.714Z,96570.88
2023-01-22T01:35:33.138Z,96572.72
2023-01-22T01:45:37.264Z,96566.75
2023-01-22T01:55:40.655Z,96564.84
2023-01-22T02:05:44.791Z,96569.16
2023-01-22T02:15:47.316Z,96567.38
2023-01-22T02:25:51.098Z,96565.50
2023-01-22T02:35:53.509Z,96559.47
2023-01-22T02:45:57.303Z,96557.69
2023-01-22T02:55:59.752Z,96550.28
2023-01-22T03:06:03.538Z,96551.31
2023-01-22T03:16:23.564Z,96548.28
2023-01-22T03:26:28.892Z,96541.56
2023-01-22T03:36:31.473Z,96530.94
2023-01-22T03:46:35.726Z,96533.88
2023-01-22T03:56:38.181Z,96553.59
2023-01-22T04:06:41.983Z,96554.75
2023-01-22T04:16:44.424Z,96555.06
2023-01-22T04:26:48.309Z,96554.09
2023-01-22T04:36:50.834Z,96558.53
2023-01-22T04:46:54.629Z,96565.28
2023-01-22T04:56:57.064Z,96566.28
2023-01-22T05:07:00.859Z,96578.44
2023-01-22T05:17:03.264Z,96593.25
2023-01-22T05:27:07.078Z,96600.13
2023-01-22T05:37:09.510Z,96601.16
2023-01-22T05:47:14.747Z,96605.91
2023-01-22T05:57:17.265Z,96619.56
2023-01-22T06:07:21.038Z,96619.22
2023-01-22T06:17:23.414Z,96626.41
2023-01-22T06:27:27.259Z,96634.09
2023-01-22T06:37:29.713Z,96633.56
2023-01-22T06:47:33.492Z,96640.13
2023-01-22T06:57:35.952Z,96660.00
2023-01-22T07:07:39.811Z,96663.47
2023-01-22T07:17:42.219Z,96679.97
2023-01-22T07:27:46.095Z,96692.41
2023-01-22T07:37:52.189Z,96694.31
2023-01-22T07:47:56.812Z,96700.56
2023-01-22T07:57:59.566Z,96690.91
2023-01-22T08:08:03.344Z,96702.41
2023-01-22T08:18:07.449Z,96694.19
2023-01-22T08:28:11.213Z,96703.94
2023-01-22T08:38:13.786Z,96717.59
2023-01-22T08:48:17.780Z,96730.72
2023-01-22T08:58:22.202Z,96739.94
2023-01-22T09:08:26.088Z,96739.97
2023-01-22T09:18:28.594Z,96732.78
2023-01-22T09:28:33.669Z,96742.19
2023-01-22T09:38:37.256Z,96737.41
2023-01-22T09:48:44.737Z,96744.47
2023-01-22T09:58:49.723Z,96754.19
2023-01-22T10:08:57.581Z,96762.22
2023-01-22T10:19:01.599Z,96763.38
2023-01-22T10:29:07.004Z,96763.72
2023-01-22T10:39:14.120Z,96772.94
2023-01-22T10:49:18.811Z,96777.38
2023-01-22T10:59:24.368Z,96777.41
2023-01-22T11:09:32.377Z,96779.19
2023-01-22T11:19:40.809Z,96769.50
2023-01-22T11:30:01.189Z,96766.66
2023-01-22T11:40:11.576Z,96774.56
2023-01-22T11:50:21.621Z,96772.59
2023-01-22T12:00:31.268Z,96767.69
2023-01-22T12:10:39.346Z,96762.09
2023-01-22T12:21:00.684Z,96760.91
2023-01-22T12:31:05.826Z,96766.69
2023-01-22T12:41:20.958Z,96770.97
2023-01-22T12:51:25.748Z,96785.78
2023-01-22T13:01:35.054Z,96788.44
2023-01-22T13:11:38.574Z,96793.53
2023-01-22T13:21:42.342Z,96786.94
2023-01-22T13:31:51.518Z,96789.25
2023-01-22T13:41:56.366Z,96788.25
2023-01-22T13:52:00.612Z,96799.44
2023-01-22T14:02:17.997Z,96810.00
2023-01-22T14:12:22.955Z,96813.31
2023-01-22T14:22:25.543Z,96818.06
2023-01-22T14:32:30.622Z,96825.66
2023-01-22T14:42:33.010Z,96834.03
2023-01-22T14:52:37.361Z,96827.47
2023-01-22T15:02:40.067Z,96830.44
2023-01-22T15:12:48.053Z,96844.59
2023-01-22T15:22:50.700Z,96851.16
2023-01-22T15:32:54.542Z,96861.03
2023-01-22T15:42:56.938Z,96863.34
2023-01-22T15:53:00.748Z,96871.06
2023-01-22T16:03:03.369Z,96867.13
2023-01-22T16:13:07.136Z,96877.97
2023-01-22T16:23:09.570Z,96875.16
2023-01-22T16:33:20.861Z,96888.66
2023-01-22T16:43:23.357Z,96886.16
2023-01-22T16:53:27.353Z,96908.03
2023-01-22T17:03:30.425Z,96908.69
2023-01-22T17:13:34.285Z,96918.56
2023-01-22T17:23:36.967Z,96922.88
2023-01-22T17:33:42.978Z,96926.47
2023-01-22T17:43:46.476Z,96931.59
2023-01-22T17:53:51.185Z,96940.81
2023-01-22T18:03:53.800Z,96941.81
2023-01-22T18:13:57.884Z,96956.97
2023-01-22T18:24:00.709Z,96956.97
2023-01-22T18:34:06.274Z,96962.00
2023-01-22T18:44:09.282Z,96971.88
2023-01-22T18:54:13.325Z,96968.06
2023-01-22T19:04:19.013Z,96983.22
2023-01-22T19:14:23.006Z,96990.09
2023-01-22T19:24:28.159Z,96995.09
2023-01-22T19:34:32.299Z,96995.72
2023-01-22T19:44:35.689Z,96999.66
2023-01-22T19:54:43.010Z,96998.03
2023-01-22T20:04:45.821Z,97009.56
2023-01-22T20:14:49.609Z,97013.09
2023-01-22T20:24:52.365Z,97018.13
2023-01-22T20:34:56.265Z,97026.72
2023-01-22T20:44:59.230Z,97025.72
2023-01-22T20:55:03.070Z,97036.00
2023-01-22T21:05:05.809Z,97034.34
2023-01-22T21:15:10.596Z,97040.34
2023-01-22T21:25:13.125Z,97037.56
2023-01-22T21:35:17.139Z,97037.94
2023-01-22T21:45:37.367Z,97049.56
2023-01-22T21:55:41.287Z,97055.31
2023-01-22T22:05:43.736Z,97045.56
2023-01-22T22:15:47.599Z,97065.13
2023-01-22T22:25:50.246Z,97059.22
2023-01-22T22:35:54.031Z,97071.56
2023-01-22T22:45:56.500Z,97077.84
2023-01-22T22:56:00.471Z,97070.31
2023-01-22T23:06:08.068Z,97077.91
2023-01-22T23:16:13.054Z,97072.09
2023-01-22T23:26:17.398Z,97069.94
2023-01-22T23:36:21.305Z,97073.88
2023-01-22T23:46:25.276Z,97067.28
2023-01-22T23:56:31.530Z,97051.75
